Angler Guide Weather for Beaver Creek -
Beaver Creek, Yukon Territory Current Weather Conditions
Enter your "Place, State", US Zip Code or ICAO:  
Forecast Information Radar Information
Beaver Creek, Yukon Territory, Canada  Lat: 62.42N, Lon: 140.87W
ICAO Used: PAOR
Current Conditions
Updated:
Sun & Moon Information:
Temp: N/A
Humidity: N/A
Wind Speed: N/A
Barometer: N/A
Dewpoint: N/A
Heat Index: N/A
Wind Chill: N/A
Civil Twilight: 8:42 AM PDT
Moonrise: 1:55 PM PDT Moon Phase:
Waxing Crescent Moon
Waxing Crescent Moon
Moonset: 8:47 PM PDT
Sunrise: 9:29 AM PDT
Sunset: 6:43 PM PDT
Civil Twilight: 7:30 PM PDT
Forecast for Beaver Creek, YK:
(Forecast based on TAF for )
0210 PM PDT MON NOV 06 2006
  
AFTERNOONEVENINGOVERNIGHTMORNING
OVERCASTOVERCASTOVERCASTOVERCAST
OvercastOvercastOvercastOvercast
TAF based forecast:
Dated: 0210 PM PDT MON NOV 06 2006
Afternoon...Overcast with winds from the south east at 6 mph.
Evening...Overcast with winds from the south east at 6 mph.
Overnight...Overcast with winds from the south east at 6 mph. Then turning overcast with winds from the north west at 5 mph.
Morning...Turning overcast with winds from the north west at 5 mph.
Original Encoded TAF:
Dated: 0210 PM PDT MON NOV 06 2006
2006/11/06 21:10
PAOR 062110Z 062118 13005KT P6SM VCSH OVC015 FM0900 30004KT P6SM BKN015 OVC025=




Powered by Angler Guide.com
Copyright 2007, all rights reserved.